Terminal Aerodrome Forecast
Issued by NWS Wilmington, NC

Home | Current Version | Previous Version | Text Only | Print | Product List | Glossary On
Versions: 1 2 3 4 5 6 7 8 9 10 11 12 13 14 15
120
FTUS42 KILM 291738
TAFLBT
TAF
KLBT 291738Z 2918/3018 21008KT P6SM FEW035
     FM292200 19009KT P6SM FEW150
     FM300600 VRB03KT P6SM BKN006
     FM301300 19006KT P6SM BKN100
     FM301600 20010KT P6SM BKN200=

USA.gov is the U.S. government's official web portal to all federal, state and local government web resources and services.